Time;durP1;ratioP1;P1;durP2;ratioP2;P2;SDS_P1;SDS_P2;PMS_P1;PMS_P2;Temp;Humidity;BMP_temperature;BMP_pressure;BME280_temperature;BME280_humidity;BME280_pressure;Samples;Min_cycle;Max_cycle;Signal;HPM_P1;HPM_P2
2024/01/28 00:01:32;;;;;;;1.10;1.10;;;2.30;63.40;;;;;;5094864;28;20161;-67
2024/01/28 00:03:58;;;;;;;1.77;1.67;;;2.20;63.60;;;;;;5094605;28;20028;-67
2024/01/28 00:06:23;;;;;;;1.17;1.10;;;2.20;63.80;;;;;;5094806;28;20040;-66
2024/01/28 00:08:49;;;;;;;0.63;0.63;;;2.30;64.00;;;;;;5094902;28;20421;-66
2024/01/28 00:11:14;;;;;;;0.70;0.70;;;2.30;64.10;;;;;;5094474;28;20108;-66
2024/01/28 00:13:40;;;;;;;1.63;1.48;;;2.30;64.10;;;;;;5094640;28;20077;-66
2024/01/28 00:16:05;;;;;;;0.65;0.65;;;2.40;64.30;;;;;;5094479;28;20028;-67
2024/01/28 00:18:31;;;;;;;1.50;1.40;;;2.40;64.50;;;;;;5093938;28;20094;-66
2024/01/28 00:20:56;;;;;;;1.30;1.25;;;2.50;64.70;;;;;;5094450;28;20365;-67
2024/01/28 00:23:22;;;;;;;0.82;0.82;;;2.50;64.70;;;;;;5093507;28;20032;-66
2024/01/28 00:25:47;;;;;;;2.20;2.00;;;2.50;64.50;;;;;;5093766;28;20043;-66
2024/01/28 00:28:13;;;;;;;1.88;1.75;;;2.50;64.40;;;;;;5093717;28;20047;-66
2024/01/28 00:30:38;;;;;;;0.82;0.82;;;2.50;64.40;;;;;;5093045;28;20038;-67
2024/01/28 00:33:04;;;;;;;0.70;0.70;;;2.50;64.50;;;;;;5093476;28;20024;-67
2024/01/28 00:35:30;;;;;;;0.68;0.68;;;2.50;64.60;;;;;;5094299;28;20483;-66
2024/01/28 00:37:57;;;;;;;1.40;1.33;;;2.50;64.70;;;;;;5094196;28;20024;-66
2024/01/28 00:40:23;;;;;;;1.17;1.08;;;2.50;64.70;;;;;;5075909;28;20071;-67
2024/01/28 00:42:49;;;;;;;0.80;0.80;;;2.50;64.50;;;;;;5093564;28;20020;-67
2024/01/28 00:45:14;;;;;;;9.82;3.90;;;2.60;64.70;;;;;;5094014;28;20371;-66
2024/01/28 00:47:43;;;;;;;0.98;0.98;;;2.60;65.00;;;;;;5093524;28;20035;-66
2024/01/28 00:50:08;;;;;;;0.77;0.77;;;2.60;65.20;;;;;;5093091;28;20486;-67
2024/01/28 00:52:34;;;;;;;0.70;0.70;;;2.60;65.40;;;;;;5093358;28;20032;-66
2024/01/28 00:54:59;;;;;;;0.80;0.80;;;2.60;65.50;;;;;;5093013;28;20024;-67
2024/01/28 00:57:25;;;;;;;1.20;1.20;;;2.60;65.60;;;;;;5093587;28;20020;-66
2024/01/28 00:59:50;;;;;;;0.80;0.80;;;2.70;65.70;;;;;;5094094;28;20050;-66
2024/01/28 01:02:16;;;;;;;1.10;1.10;;;2.70;65.90;;;;;;5092788;28;20035;-67
2024/01/28 01:04:41;;;;;;;0.63;0.63;;;2.70;66.10;;;;;;5093104;28;20043;-66
2024/01/28 01:07:07;;;;;;;0.70;0.70;;;2.80;66.10;;;;;;5092861;28;20066;-67
2024/01/28 01:09:32;;;;;;;1.10;1.10;;;2.80;66.10;;;;;;5093389;28;20024;-66
2024/01/28 01:11:58;;;;;;;0.70;0.70;;;2.80;65.80;;;;;;5092731;28;20401;-67
2024/01/28 01:14:24;;;;;;;0.60;0.60;;;2.80;65.90;;;;;;5092638;28;20027;-66
2024/01/28 01:16:49;;;;;;;1.70;1.60;;;2.90;66.10;;;;;;5074347;28;20356;-66
2024/01/28 01:19:15;;;;;;;0.82;0.82;;;2.90;65.90;;;;;;5092336;28;20153;-67
2024/01/28 01:21:41;;;;;;;0.80;0.80;;;2.90;65.80;;;;;;5092783;28;20028;-67
2024/01/28 01:24:06;;;;;;;0.70;0.70;;;2.90;65.70;;;;;;5092596;28;20380;-66
2024/01/28 01:26:31;;;;;;;0.90;0.90;;;3.00;65.50;;;;;;5092660;28;20070;-67
2024/01/28 01:28:57;;;;;;;0.73;0.73;;;3.00;65.40;;;;;;5092070;28;20036;-67
2024/01/28 01:31:22;;;;;;;2.55;1.85;;;3.00;65.40;;;;;;5092141;28;20032;-66
2024/01/28 01:33:48;;;;;;;0.65;0.65;;;3.00;65.20;;;;;;5092478;28;20055;-66
2024/01/28 01:36:13;;;;;;;1.13;1.13;;;3.00;64.80;;;;;;5091963;28;20032;-67
2024/01/28 01:38:39;;;;;;;0.73;0.73;;;2.90;64.40;;;;;;5092804;28;20463;-66
2024/01/28 01:41:04;;;;;;;0.80;0.80;;;2.80;64.10;;;;;;5092211;28;20036;-67
2024/01/28 01:43:30;;;;;;;0.80;0.80;;;2.80;64.10;;;;;;5092110;28;20035;-67
2024/01/28 01:45:56;;;;;;;0.75;0.75;;;2.70;64.00;;;;;;5092111;28;20063;-66
2024/01/28 01:48:22;;;;;;;0.75;0.75;;;2.70;63.90;;;;;;5091937;28;20024;-66
2024/01/28 01:50:48;;;;;;;0.70;0.70;;;2.70;64.00;;;;;;5091632;28;20032;-67
2024/01/28 01:53:13;;;;;;;0.60;0.60;;;2.60;64.00;;;;;;5091845;28;20024;-67
2024/01/28 01:55:40;;;;;;;0.60;0.60;;;2.60;63.90;;;;;;5092017;28;20028;-67
2024/01/28 01:58:07;;;;;;;1.45;1.35;;;2.60;64.00;;;;;;5091932;28;20497;-68
2024/01/28 02:00:34;;;;;;;0.52;0.52;;;2.50;64.20;;;;;;5091742;28;20024;-67
2024/01/28 02:03:01;;;;;;;0.70;0.70;;;2.50;64.10;;;;;;5091738;28;20068;-67
2024/01/28 02:05:27;;;;;;;0.60;0.60;;;2.50;64.10;;;;;;5091321;28;20039;-67
2024/01/28 02:07:52;;;;;;;0.70;0.70;;;2.50;64.20;;;;;;5091876;28;20024;-67
2024/01/28 02:10:19;;;;;;;0.60;0.60;;;2.50;64.40;;;;;;5092279;28;20082;-66
2024/01/28 02:12:49;;;;;;;1.08;1.08;;;2.50;64.40;;;;;;5091868;28;20127;-66
2024/01/28 02:15:15;;;;;;;0.80;0.80;;;2.50;64.50;;;;;;5091915;28;20419;-66
2024/01/28 02:17:41;;;;;;;0.60;0.60;;;2.50;64.40;;;;;;5091683;28;20073;-67
2024/01/28 02:20:07;;;;;;;0.75;0.75;;;2.50;64.40;;;;;;5091806;28;20111;-67
2024/01/28 02:22:32;;;;;;;0.98;0.98;;;2.50;64.30;;;;;;5091461;28;20460;-66
2024/01/28 02:24:58;;;;;;;1.27;1.23;;;2.50;64.30;;;;;;5092079;28;20027;-67
2024/01/28 02:27:23;;;;;;;0.80;0.80;;;2.50;64.40;;;;;;5091515;28;20039;-66
2024/01/28 02:29:49;;;;;;;1.20;1.20;;;2.50;64.50;;;;;;5091322;28;20055;-66
2024/01/28 02:32:17;;;;;;;0.73;0.73;;;2.50;64.70;;;;;;5091291;28;20024;-67
2024/01/28 02:34:43;;;;;;;0.70;0.70;;;2.50;65.00;;;;;;5091514;28;20100;-67
2024/01/28 02:37:10;;;;;;;0.80;0.80;;;2.50;65.20;;;;;;5091092;28;20020;-67
2024/01/28 02:39:36;;;;;;;0.75;0.75;;;2.50;65.10;;;;;;5091319;28;20043;-67
2024/01/28 02:42:02;;;;;;;1.17;1.15;;;2.50;65.00;;;;;;5091020;28;20039;-67
2024/01/28 02:44:27;;;;;;;0.70;0.70;;;2.50;65.00;;;;;;5091631;28;20024;-67
2024/01/28 02:46:54;;;;;;;0.93;0.93;;;2.50;65.00;;;;;;5090922;28;20103;-67
2024/01/28 02:49:21;;;;;;;0.80;0.77;;;2.50;64.80;;;;;;5091306;28;20468;-66
2024/01/28 02:51:47;;;;;;;0.60;0.60;;;2.50;64.70;;;;;;5091008;28;20392;-66
2024/01/28 02:54:12;;;;;;;1.40;1.30;;;2.40;64.50;;;;;;5091085;28;20020;-66
2024/01/28 02:56:38;;;;;;;1.13;1.13;;;2.40;64.40;;;;;;5091097;28;20032;-66
2024/01/28 02:59:04;;;;;;;1.00;1.00;;;2.40;64.50;;;;;;5090456;28;20475;-67
2024/01/28 03:01:29;;;;;;;0.70;0.70;;;2.40;64.90;;;;;;5091653;28;20043;-66
2024/01/28 03:03:55;;;;;;;0.70;0.70;;;2.40;65.20;;;;;;5091137;28;20578;-66
2024/01/28 03:06:21;;;;;;;0.90;0.90;;;2.50;65.30;;;;;;5091425;28;20044;-66
2024/01/28 03:08:46;;;;;;;0.70;0.70;;;2.50;65.50;;;;;;5091433;28;20073;-66
2024/01/28 03:11:12;;;;;;;2.88;2.03;;;2.60;65.70;;;;;;5091228;28;20043;-66
2024/01/28 03:13:37;;;;;;;1.52;1.42;;;2.60;65.60;;;;;;5091400;28;20536;-66
2024/01/28 03:16:04;;;;;;;0.60;0.60;;;2.60;65.50;;;;;;5092495;28;20040;-67
2024/01/28 03:18:30;;;;;;;0.80;0.80;;;2.70;65.70;;;;;;5098344;28;20115;-66
2024/01/28 03:20:56;;;;;;;0.68;0.68;;;2.70;65.60;;;;;;5098109;28;20040;-66
2024/01/28 03:23:21;;;;;;;1.35;1.25;;;2.70;65.30;;;;;;5098011;28;20435;-66
2024/01/28 03:25:48;;;;;;;0.60;0.60;;;2.70;65.00;;;;;;5097251;28;20036;-66
2024/01/28 03:28:13;;;;;;;0.80;0.80;;;2.60;64.70;;;;;;5097476;28;20020;-66
2024/01/28 03:30:39;;;;;;;0.80;0.80;;;2.60;64.60;;;;;;5096993;28;20035;-67
2024/01/28 03:33:04;;;;;;;0.80;0.80;;;2.50;64.50;;;;;;5097971;28;20081;-67
2024/01/28 03:35:30;;;;;;;0.70;0.70;;;2.50;64.70;;;;;;5097901;28;20024;-66
2024/01/28 03:37:55;;;;;;;0.68;0.68;;;2.50;64.80;;;;;;5097763;28;20505;-67
2024/01/28 03:40:21;;;;;;;0.70;0.70;;;2.50;64.90;;;;;;5098228;28;20119;-66
2024/01/28 03:42:46;;;;;;;0.80;0.80;;;2.50;64.90;;;;;;5097934;28;20039;-66
2024/01/28 03:45:13;;;;;;;0.65;0.65;;;2.50;64.90;;;;;;5097543;28;20051;-67
2024/01/28 03:47:38;;;;;;;0.60;0.60;;;2.60;65.00;;;;;;5098012;28;20031;-66
2024/01/28 03:50:04;;;;;;;0.70;0.70;;;2.60;65.10;;;;;;5098035;28;20456;-67
2024/01/28 03:52:30;;;;;;;0.70;0.70;;;2.60;64.90;;;;;;5097251;28;20085;-67
2024/01/28 03:54:56;;;;;;;0.60;0.60;;;2.60;64.80;;;;;;5097737;28;20429;-66
2024/01/28 03:57:21;;;;;;;0.60;0.60;;;2.60;64.80;;;;;;5096636;28;20039;-66
2024/01/28 03:59:47;;;;;;;0.60;0.60;;;2.60;65.00;;;;;;5097327;28;20114;-66
2024/01/28 04:02:14;;;;;;;0.75;0.75;;;2.60;65.10;;;;;;5097519;28;20024;-66
2024/01/28 04:04:40;;;;;;;0.80;0.80;;;2.70;65.00;;;;;;5097925;28;20024;-66
2024/01/28 04:07:05;;;;;;;0.80;0.80;;;2.70;65.10;;;;;;5097425;28;20032;-66
2024/01/28 04:09:32;;;;;;;0.70;0.70;;;2.70;65.00;;;;;;5097938;28;20085;-66
2024/01/28 04:11:58;;;;;;;0.60;0.60;;;2.70;65.00;;;;;;5097493;28;20129;-66
2024/01/28 04:14:24;;;;;;;0.70;0.70;;;2.70;65.00;;;;;;5097880;28;20534;-66
2024/01/28 04:16:49;;;;;;;0.70;0.70;;;2.80;65.10;;;;;;5097402;28;20391;-66
2024/01/28 04:19:15;;;;;;;0.70;0.70;;;2.80;65.10;;;;;;5097677;28;20031;-67
2024/01/28 04:21:41;;;;;;;0.60;0.60;;;2.70;65.10;;;;;;5097504;28;20034;-66
2024/01/28 04:24:07;;;;;;;0.75;0.75;;;2.80;65.20;;;;;;5099373;28;20106;-67
2024/01/28 04:26:33;;;;;;;0.60;0.60;;;2.80;65.20;;;;;;5094322;28;20149;-67
2024/01/28 04:28:58;;;;;;;0.60;0.60;;;2.80;65.20;;;;;;5092551;28;20031;-67
2024/01/28 04:31:26;;;;;;;0.63;0.63;;;2.70;65.10;;;;;;5093087;28;20032;-66
2024/01/28 04:33:53;;;;;;;0.63;0.63;;;2.70;65.00;;;;;;5093482;28;20024;-66
2024/01/28 04:36:18;;;;;;;0.63;0.63;;;2.70;65.10;;;;;;5093345;28;20104;-67
2024/01/28 04:38:43;;;;;;;1.08;1.08;;;2.70;64.90;;;;;;5075843;28;20103;-66
2024/01/28 04:41:09;;;;;;;0.70;0.70;;;2.70;64.90;;;;;;5092992;28;20036;-67
2024/01/28 04:43:38;;;;;;;0.60;0.60;;;2.70;65.00;;;;;;5093755;28;20451;-67
2024/01/28 04:46:04;;;;;;;0.77;0.77;;;2.70;65.10;;;;;;5093332;28;20034;-66
2024/01/28 04:48:29;;;;;;;0.70;0.70;;;2.60;65.00;;;;;;5093422;28;20028;-66
2024/01/28 04:50:55;;;;;;;0.70;0.70;;;2.70;65.20;;;;;;5093140;28;20053;-67
2024/01/28 04:53:21;;;;;;;0.70;0.70;;;2.60;65.10;;;;;;5093160;28;20024;-67
2024/01/28 04:55:46;;;;;;;0.70;0.70;;;2.60;64.80;;;;;;5093398;28;20024;-67
2024/01/28 04:58:12;;;;;;;0.90;0.90;;;2.60;64.80;;;;;;5093066;28;20111;-67
2024/01/28 05:00:37;;;;;;;0.80;0.80;;;2.60;64.60;;;;;;5093291;28;20044;-66
2024/01/28 05:03:03;;;;;;;0.80;0.80;;;2.50;64.60;;;;;;5092601;28;20028;-66
2024/01/28 05:05:29;;;;;;;1.00;1.00;;;2.50;64.60;;;;;;5091160;28;20036;-67
2024/01/28 05:07:54;;;;;;;0.80;0.80;;;2.50;64.70;;;;;;5092217;28;20065;-67
2024/01/28 05:10:19;;;;;;;0.68;0.68;;;2.50;65.00;;;;;;5092436;28;20028;-67
2024/01/28 05:12:45;;;;;;;0.70;0.70;;;2.50;65.10;;;;;;5092385;28;20016;-66
2024/01/28 05:15:16;;;;;;;0.70;0.70;;;2.60;65.30;;;;;;5092555;28;20142;-66
2024/01/28 05:17:41;;;;;;;0.68;0.68;;;2.60;65.30;;;;;;5092171;28;20125;-67
2024/01/28 05:20:11;;;;;;;0.70;0.70;;;2.50;65.30;;;;;;5092340;28;20488;-67
2024/01/28 05:22:38;;;;;;;0.68;0.68;;;2.60;65.20;;;;;;5086618;28;20035;-67
2024/01/28 05:25:04;;;;;;;0.70;0.70;;;2.50;65.00;;;;;;5093066;28;20052;-67
2024/01/28 05:27:30;;;;;;;0.70;0.70;;;2.50;64.90;;;;;;5084394;28;20032;-66
2024/01/28 05:29:58;;;;;;;0.88;0.88;;;2.50;64.70;;;;;;5093047;28;20035;-66
2024/01/28 05:32:25;;;;;;;0.65;0.65;;;2.50;64.50;;;;;;5092337;28;20020;-67
2024/01/28 05:34:50;;;;;;;0.70;0.70;;;2.50;64.40;;;;;;5093181;28;20024;-66
2024/01/28 05:37:16;;;;;;;1.55;1.45;;;2.50;64.40;;;;;;5092570;28;20035;-67
2024/01/28 05:39:42;;;;;;;0.63;0.63;;;2.50;64.70;;;;;;5092414;28;20102;-66
2024/01/28 05:42:07;;;;;;;0.70;0.70;;;2.50;64.90;;;;;;5092265;28;20032;-66
2024/01/28 05:44:33;;;;;;;0.95;0.95;;;2.60;64.90;;;;;;5092554;28;20028;-66
2024/01/28 05:46:59;;;;;;;0.70;0.70;;;2.50;64.80;;;;;;5092406;28;20032;-66
2024/01/28 05:49:24;;;;;;;0.70;0.70;;;2.50;64.70;;;;;;5092338;28;20403;-66
2024/01/28 05:51:50;;;;;;;0.68;0.68;;;2.50;64.60;;;;;;5091784;28;20139;-67
2024/01/28 05:54:15;;;;;;;1.10;1.10;;;2.50;64.60;;;;;;5092493;28;20054;-66
2024/01/28 05:56:41;;;;;;;0.80;0.80;;;2.50;64.50;;;;;;5092512;28;20035;-66
2024/01/28 05:59:06;;;;;;;0.80;0.80;;;2.50;64.70;;;;;;5092472;28;20109;-67
2024/01/28 06:01:32;;;;;;;1.25;1.23;;;2.50;64.70;;;;;;5091911;28;20040;-66
2024/01/28 06:03:57;;;;;;;0.70;0.70;;;2.50;64.40;;;;;;5091642;28;20544;-67
2024/01/28 06:06:23;;;;;;;0.60;0.60;;;2.40;64.30;;;;;;5091640;28;20044;-66
2024/01/28 06:08:48;;;;;;;0.80;0.80;;;2.40;64.30;;;;;;5092110;28;20031;-66
2024/01/28 06:11:14;;;;;;;0.70;0.70;;;2.40;64.40;;;;;;5091464;28;20055;-66
2024/01/28 06:13:39;;;;;;;0.70;0.70;;;2.40;64.70;;;;;;5091835;28;20048;-67
2024/01/28 06:16:07;;;;;;;0.80;0.80;;;2.50;64.80;;;;;;5091663;28;20606;-67
2024/01/28 06:18:32;;;;;;;0.82;0.82;;;2.50;64.70;;;;;;5091990;28;20122;-66
2024/01/28 06:20:58;;;;;;;1.10;1.10;;;2.50;64.70;;;;;;5091778;28;20107;-66
2024/01/28 06:23:23;;;;;;;0.95;0.95;;;2.50;64.80;;;;;;5091620;28;20024;-66
2024/01/28 06:25:49;;;;;;;0.85;0.85;;;2.60;64.90;;;;;;5091599;28;20055;-66
2024/01/28 06:28:15;;;;;;;0.60;0.60;;;2.60;65.00;;;;;;5091168;28;20032;-66
2024/01/28 06:30:40;;;;;;;0.60;0.60;;;2.60;65.00;;;;;;5091437;28;20085;-66
2024/01/28 06:33:06;;;;;;;1.02;1.02;;;2.60;65.10;;;;;;5091051;28;20023;-67
2024/01/28 06:35:31;;;;;;;0.88;0.88;;;2.70;65.30;;;;;;5091427;28;20103;-66
2024/01/28 06:37:57;;;;;;;0.82;0.82;;;2.70;65.20;;;;;;5091743;28;20016;-66
2024/01/28 06:40:23;;;;;;;0.80;0.80;;;2.70;65.10;;;;;;5091316;28;20391;-66
2024/01/28 06:42:48;;;;;;;0.98;0.98;;;2.80;64.80;;;;;;5091300;28;20051;-66
2024/01/28 06:45:14;;;;;;;0.70;0.70;;;2.70;64.50;;;;;;5090907;28;20475;-66
2024/01/28 06:47:39;;;;;;;0.70;0.70;;;2.70;64.30;;;;;;5073305;28;20548;-66
2024/01/28 06:50:05;;;;;;;1.52;1.42;;;2.70;64.30;;;;;;5091353;28;20028;-67
2024/01/28 06:52:31;;;;;;;0.70;0.70;;;2.70;64.50;;;;;;5072301;28;20020;-67
2024/01/28 06:54:57;;;;;;;0.88;0.88;;;2.70;64.70;;;;;;5091274;28;20475;-66
2024/01/28 06:57:23;;;;;;;1.58;1.15;;;2.70;64.90;;;;;;5072744;28;20053;-66
2024/01/28 06:59:52;;;;;;;1.00;1.00;;;2.70;65.00;;;;;;5091315;28;20020;-66
2024/01/28 07:02:17;;;;;;;1.70;1.60;;;2.70;65.10;;;;;;5090583;28;20093;-66
2024/01/28 07:04:43;;;;;;;0.70;0.70;;;2.80;65.00;;;;;;5090794;28;20111;-67
2024/01/28 07:07:08;;;;;;;0.60;0.60;;;2.80;65.00;;;;;;5090473;28;20028;-67
2024/01/28 07:09:34;;;;;;;0.60;0.60;;;2.80;64.90;;;;;;5091348;28;20024;-67
2024/01/28 07:11:59;;;;;;;0.60;0.60;;;2.80;64.70;;;;;;5090909;28;20467;-66
2024/01/28 07:14:25;;;;;;;0.70;0.70;;;2.80;64.70;;;;;;5090985;28;20070;-66
2024/01/28 07:16:51;;;;;;;0.60;0.60;;;2.80;64.70;;;;;;5090756;28;20107;-66
2024/01/28 07:19:16;;;;;;;1.50;1.40;;;2.80;64.60;;;;;;5072431;28;20028;-66
2024/01/28 07:21:42;;;;;;;0.70;0.70;;;2.80;64.50;;;;;;5090879;28;20031;-66
2024/01/28 07:24:10;;;;;;;0.70;0.70;;;2.80;64.60;;;;;;5090790;28;20107;-66
2024/01/28 07:26:36;;;;;;;0.63;0.63;;;2.90;64.90;;;;;;5090630;28;20059;-66
2024/01/28 07:29:01;;;;;;;0.60;0.60;;;3.10;65.30;;;;;;5090725;28;20082;-67
2024/01/28 07:31:27;;;;;;;1.42;1.35;;;3.30;65.60;;;;;;5090788;28;20072;-66
2024/01/28 07:33:53;;;;;;;0.60;0.60;;;3.50;65.90;;;;;;5072580;28;20028;-67
2024/01/28 07:36:18;;;;;;;0.65;0.65;;;3.80;66.20;;;;;;5090583;28;20137;-67
2024/01/28 07:38:44;;;;;;;0.70;0.70;;;4.00;66.60;;;;;;5090845;28;20035;-67
2024/01/28 07:41:14;;;;;;;0.60;0.60;;;4.30;66.80;;;;;;5090499;28;20028;-67
2024/01/28 07:43:41;;;;;;;0.60;0.60;;;4.60;67.00;;;;;;5090687;28;20027;-67
2024/01/28 07:46:07;;;;;;;0.90;0.90;;;5.00;67.50;;;;;;5090486;28;20025;-68
2024/01/28 07:48:33;;;;;;;0.60;0.60;;;5.30;67.80;;;;;;5072976;28;20024;-67
2024/01/28 07:50:58;;;;;;;0.60;0.60;;;5.70;67.80;;;;;;5090695;28;20106;-67
2024/01/28 07:53:24;;;;;;;0.60;0.60;;;6.00;67.70;;;;;;5090424;28;20039;-67
2024/01/28 07:55:50;;;;;;;0.95;0.95;;;6.30;67.50;;;;;;5090775;28;20020;-68
2024/01/28 07:58:16;;;;;;;0.50;0.50;;;6.70;67.10;;;;;;5090354;28;20043;-68
2024/01/28 08:00:41;;;;;;;0.60;0.60;;;7.00;66.90;;;;;;5090742;28;20024;-70
2024/01/28 08:03:07;;;;;;;0.60;0.60;;;7.30;66.80;;;;;;5091829;28;20436;-70
2024/01/28 08:05:32;;;;;;;0.60;0.60;;;7.70;66.80;;;;;;5094313;28;20044;-70
2024/01/28 08:07:57;;;;;;;0.73;0.73;;;8.00;67.00;;;;;;5094306;28;20425;-70
2024/01/28 08:10:24;;;;;;;0.60;0.60;;;8.30;67.00;;;;;;5094320;28;20117;-70
2024/01/28 08:12:50;;;;;;;0.60;0.60;;;8.60;67.00;;;;;;5094369;28;20023;-71
2024/01/28 08:15:15;;;;;;;0.60;0.60;;;8.90;67.00;;;;;;5094251;28;20024;-71
2024/01/28 08:17:41;;;;;;;0.40;0.40;;;9.30;67.30;;;;;;5094570;28;20056;-71
2024/01/28 08:20:07;;;;;;;0.60;0.60;;;9.60;66.70;;;;;;5094328;28;20066;-71
2024/01/28 08:22:33;;;;;;;0.77;0.77;;;9.80;66.60;;;;;;5094141;28;20055;-71
2024/01/28 08:24:58;;;;;;;0.60;0.60;;;10.20;66.70;;;;;;5094276;28;20059;-71
2024/01/28 08:27:24;;;;;;;0.60;0.60;;;10.50;66.70;;;;;;5094373;28;20471;-71
2024/01/28 08:29:49;;;;;;;0.52;0.52;;;10.80;66.50;;;;;;5094420;28;20031;-71
2024/01/28 08:32:15;;;;;;;0.55;0.55;;;11.10;66.20;;;;;;5094609;28;20067;-71
2024/01/28 08:34:40;;;;;;;0.80;0.80;;;11.40;66.10;;;;;;5076206;28;20039;-72
2024/01/28 08:37:06;;;;;;;0.65;0.65;;;11.60;65.90;;;;;;5094363;28;20339;-72
2024/01/28 08:39:31;;;;;;;0.60;0.60;;;11.80;65.60;;;;;;5094513;28;20028;-72
2024/01/28 08:41:59;;;;;;;0.57;0.57;;;12.10;65.60;;;;;;5094221;28;20055;-71
2024/01/28 08:44:25;;;;;;;0.50;0.50;;;12.30;65.60;;;;;;5094326;28;20459;-72
2024/01/28 08:46:51;;;;;;;1.52;0.77;;;12.60;65.50;;;;;;5094402;28;20104;-71
2024/01/28 08:49:17;;;;;;;0.60;0.60;;;12.80;65.50;;;;;;5094416;28;20078;-72
2024/01/28 08:51:42;;;;;;;0.50;0.50;;;13.00;65.00;;;;;;5075924;28;20036;-72
2024/01/28 08:54:08;;;;;;;0.70;0.70;;;13.20;65.00;;;;;;5094409;28;20020;-72
2024/01/28 08:56:33;;;;;;;0.60;0.60;;;13.30;65.00;;;;;;5093844;28;20028;-72
2024/01/28 08:58:59;;;;;;;0.75;0.75;;;13.50;64.70;;;;;;5094160;28;20043;-71
2024/01/28 09:01:24;;;;;;;0.63;0.63;;;13.70;64.70;;;;;;5093960;28;20111;-69
2024/01/28 09:03:50;;;;;;;1.40;0.88;;;13.90;64.40;;;;;;5094177;28;20036;-70
2024/01/28 09:06:15;;;;;;;0.60;0.60;;;14.10;64.10;;;;;;5093676;28;20036;-70
2024/01/28 09:08:41;;;;;;;1.33;1.23;;;14.30;64.30;;;;;;5093999;28;20035;-70
2024/01/28 09:11:06;;;;;;;0.60;0.60;;;14.40;64.60;;;;;;5093950;28;20032;-69
2024/01/28 09:13:32;;;;;;;0.52;0.52;;;14.70;64.00;;;;;;5093842;28;20016;-68
2024/01/28 09:15:58;;;;;;;0.70;0.70;;;14.80;63.50;;;;;;5093137;28;20368;-69
2024/01/28 09:18:23;;;;;;;0.60;0.60;;;14.90;62.90;;;;;;5093197;28;20024;-68
2024/01/28 09:20:49;;;;;;;0.80;0.80;;;15.00;63.10;;;;;;5093471;28;20039;-69
2024/01/28 09:23:14;;;;;;;0.50;0.50;;;15.20;63.00;;;;;;5092666;28;20032;-69
2024/01/28 09:25:40;;;;;;;0.50;0.50;;;15.30;62.90;;;;;;5092811;28;20420;-68
2024/01/28 09:28:07;;;;;;;0.60;0.60;;;15.40;62.60;;;;;;5093329;28;20024;-69
2024/01/28 09:30:32;;;;;;;0.60;0.60;;;15.50;62.20;;;;;;5091754;28;20032;-68
2024/01/28 09:32:58;;;;;;;7.57;1.25;;;15.60;61.80;;;;;;5092809;28;20020;-69
2024/01/28 09:35:24;;;;;;;0.75;0.75;;;15.70;61.70;;;;;;5092956;28;20113;-68
2024/01/28 09:37:50;;;;;;;1.30;1.23;;;15.80;61.20;;;;;;5092289;28;20028;-68
2024/01/28 09:40:15;;;;;;;0.98;0.93;;;15.80;61.40;;;;;;5092918;28;20533;-69
2024/01/28 09:42:53;;;;;;;0.70;0.70;;;15.80;61.00;;;;;;5092738;28;20054;-68
2024/01/28 09:45:19;;;;;;;0.50;0.50;;;15.90;60.50;;;;;;5089765;28;20463;-68
2024/01/28 09:47:45;;;;;;;0.52;0.52;;;15.90;61.50;;;;;;5091691;28;20027;-69
2024/01/28 09:50:13;;;;;;;0.68;0.68;;;16.00;61.00;;;;;;5087919;28;20035;-69
2024/01/28 09:52:38;;;;;;;2.53;1.42;;;16.10;60.90;;;;;;5069585;28;20089;-68
2024/01/28 09:55:04;;;;;;;0.60;0.60;;;16.20;61.30;;;;;;5091745;28;20028;-68
2024/01/28 09:57:30;;;;;;;0.57;0.57;;;16.20;60.70;;;;;;5091643;28;20051;-68
2024/01/28 09:59:56;;;;;;;0.60;0.60;;;16.30;60.40;;;;;;5087807;28;20130;-68
2024/01/28 10:02:22;;;;;;;0.50;0.50;;;16.30;60.10;;;;;;5089922;28;20070;-68
2024/01/28 10:04:48;;;;;;;0.52;0.52;;;16.30;59.90;;;;;;5072980;28;20035;-68
2024/01/28 10:07:15;;;;;;;0.77;0.77;;;16.30;59.80;;;;;;5090994;28;20028;-68
2024/01/28 10:09:40;;;;;;;0.50;0.50;;;16.30;60.40;;;;;;5091700;28;20103;-67
2024/01/28 10:12:09;;;;;;;0.68;0.68;;;16.30;59.80;;;;;;5087188;28;20114;-68
2024/01/28 10:14:34;;;;;;;9.05;2.13;;;16.30;60.60;;;;;;5073387;28;20047;-68
2024/01/28 10:16:59;;;;;;;2.63;1.20;;;16.40;60.70;;;;;;5091463;28;20028;-68
2024/01/28 10:19:25;;;;;;;0.50;0.50;;;16.40;60.30;;;;;;5091373;28;20043;-69
2024/01/28 10:21:51;;;;;;;1.60;1.50;;;16.40;59.90;;;;;;5093707;28;20522;-69
2024/01/28 10:24:17;;;;;;;0.90;0.90;;;16.50;58.10;;;;;;5088946;28;20368;-69
2024/01/28 10:26:43;;;;;;;0.60;0.60;;;16.40;59.00;;;;;;5070394;28;20024;-69
2024/01/28 10:29:10;;;;;;;0.60;0.60;;;16.30;59.20;;;;;;5086629;28;20028;-69
2024/01/28 10:31:37;;;;;;;0.50;0.50;;;16.40;60.10;;;;;;5090806;28;20032;-69
2024/01/28 10:34:02;;;;;;;0.50;0.50;;;16.50;60.60;;;;;;5090957;28;20016;-69
2024/01/28 10:36:31;;;;;;;0.80;0.80;;;16.60;60.10;;;;;;5090940;28;20020;-69
2024/01/28 10:39:01;;;;;;;0.60;0.60;;;16.70;60.00;;;;;;5091009;28;20023;-69
2024/01/28 10:41:28;;;;;;;1.25;1.15;;;16.80;59.40;;;;;;5089898;28;20407;-69
2024/01/28 10:44:07;;;;;;;0.80;0.80;;;16.80;59.00;;;;;;5088448;28;20531;-69
2024/01/28 10:46:41;;;;;;;0.60;0.60;;;16.80;58.20;;;;;;5088083;28;20038;-69
2024/01/28 10:49:08;;;;;;;0.65;0.65;;;16.80;58.00;;;;;;5090830;28;20024;-69
2024/01/28 10:51:36;;;;;;;0.80;0.80;;;16.80;58.80;;;;;;5090360;28;20024;-69
2024/01/28 10:54:04;;;;;;;1.25;1.15;;;16.90;59.30;;;;;;5089595;28;20032;-69
2024/01/28 10:56:33;;;;;;;0.60;0.60;;;17.00;58.80;;;;;;5086713;28;20028;-69
2024/01/28 10:58:59;;;;;;;0.75;0.75;;;17.10;58.70;;;;;;5087204;28;20024;-69
2024/01/28 11:01:26;;;;;;;1.13;0.95;;;17.10;58.30;;;;;;5089520;28;20044;-69
2024/01/28 11:03:53;;;;;;;0.50;0.50;;;17.20;58.30;;;;;;5092105;28;20484;-69
2024/01/28 11:06:19;;;;;;;0.60;0.60;;;17.30;58.40;;;;;;5087011;28;20039;-69
2024/01/28 11:08:45;;;;;;;0.63;0.63;;;17.40;57.70;;;;;;5065339;28;20032;-69
2024/01/28 11:11:12;;;;;;;0.60;0.60;;;17.30;56.50;;;;;;5084120;28;20031;-69
2024/01/28 11:13:38;;;;;;;0.50;0.50;;;17.30;56.80;;;;;;5089971;28;20024;-69
2024/01/28 11:16:07;;;;;;;0.80;0.80;;;17.30;56.10;;;;;;5091344;28;20019;-69
2024/01/28 11:18:33;;;;;;;0.60;0.60;;;17.30;57.10;;;;;;5091197;28;20471;-69
2024/01/28 11:21:10;;;;;;;0.47;0.47;;;17.30;57.30;;;;;;5091447;28;20024;-69
2024/01/28 11:23:43;;;;;;;0.60;0.60;;;17.30;57.80;;;;;;5083216;28;20520;-69
2024/01/28 11:26:14;;;;;;;0.60;0.60;;;17.40;56.80;;;;;;5090561;28;20369;-69
2024/01/28 11:28:48;;;;;;;0.50;0.50;;;17.30;56.30;;;;;;5090335;28;20110;-69
2024/01/28 11:31:33;;;;;;;1.92;1.35;;;17.30;56.90;;;;;;5090623;28;20369;-69
2024/01/28 11:34:15;;;;;;;0.73;0.73;;;17.30;57.70;;;;;;5090802;28;20031;-69
2024/01/28 11:36:45;;;;;;;0.60;0.60;;;17.30;57.60;;;;;;5083644;28;20032;-70
2024/01/28 11:39:13;;;;;;;0.50;0.50;;;17.30;58.20;;;;;;5094184;28;20020;-69
2024/01/28 11:41:39;;;;;;;1.05;0.88;;;17.40;57.70;;;;;;5094647;28;20475;-69
2024/01/28 11:44:07;;;;;;;0.60;0.60;;;17.50;57.10;;;;;;5094723;28;20028;-69
2024/01/28 11:46:38;;;;;;;0.60;0.60;;;17.50;58.00;;;;;;5095079;28;20505;-69
2024/01/28 11:49:05;;;;;;;3.30;1.35;;;17.60;58.00;;;;;;5095524;28;20028;-69
2024/01/28 11:51:31;;;;;;;1.05;1.05;;;17.50;57.60;;;;;;5095241;28;20032;-69
2024/01/28 11:54:00;;;;;;;0.60;0.60;;;17.60;57.40;;;;;;5095324;28;20031;-69
2024/01/28 11:56:26;;;;;;;0.80;0.80;;;17.50;57.20;;;;;;5095135;28;20024;-69
2024/01/28 11:58:52;;;;;;;0.60;0.60;;;17.50;56.80;;;;;;5095208;28;20464;-69
2024/01/28 12:01:18;;;;;;;0.60;0.60;;;17.40;56.70;;;;;;5095100;28;20107;-69
2024/01/28 12:03:43;;;;;;;0.60;0.60;;;17.30;56.90;;;;;;5094472;28;20028;-69
2024/01/28 12:06:09;;;;;;;0.50;0.50;;;17.30;56.60;;;;;;5093812;28;20047;-69
2024/01/28 12:08:39;;;;;;;0.65;0.65;;;17.20;57.60;;;;;;5094063;28;20036;-69
2024/01/28 12:11:06;;;;;;;1.02;0.98;;;17.10;57.40;;;;;;5094630;28;20502;-70
2024/01/28 12:13:32;;;;;;;1.17;1.08;;;17.10;57.30;;;;;;5094990;28;20120;-69
2024/01/28 12:15:59;;;;;;;0.70;0.70;;;17.00;58.10;;;;;;5094701;28;20032;-69
2024/01/28 12:18:38;;;;;;;0.98;0.98;;;17.00;56.50;;;;;;5094829;28;20028;-69
2024/01/28 12:21:05;;;;;;;0.52;0.52;;;16.80;57.60;;;;;;5094780;28;20506;-69
2024/01/28 12:23:31;;;;;;;0.50;0.50;;;16.70;57.30;;;;;;5094759;28;20123;-69
2024/01/28 12:25:58;;;;;;;3.03;1.60;;;16.70;58.70;;;;;;5076448;28;20032;-69
2024/01/28 12:28:23;;;;;;;0.73;0.73;;;16.50;57.70;;;;;;5094755;28;20044;-69
2024/01/28 12:30:50;;;;;;;0.60;0.60;;;16.30;57.30;;;;;;5094253;28;20368;-69
2024/01/28 12:33:18;;;;;;;0.57;0.57;;;16.00;57.70;;;;;;5076542;28;20053;-69
2024/01/28 12:35:44;;;;;;;1.05;1.05;;;15.60;57.90;;;;;;5076050;28;20043;-69
2024/01/28 12:38:10;;;;;;;1.23;1.13;;;15.20;58.60;;;;;;5094716;28;20016;-69
2024/01/28 12:40:35;;;;;;;0.60;0.60;;;15.00;58.80;;;;;;5076302;28;20032;-68
2024/01/28 12:43:01;;;;;;;0.50;0.50;;;14.70;59.80;;;;;;5094306;28;20098;-68
2024/01/28 12:45:27;;;;;;;0.57;0.57;;;14.50;60.40;;;;;;5094380;28;20376;-68
2024/01/28 12:47:52;;;;;;;0.50;0.50;;;14.30;61.00;;;;;;5094098;28;20059;-68